ATR-72 da Starbow sofre excursão de pista durante a decolagem em Accra, veja imagens

0
276
Autor da Imagem: Desconhecido

Um ATR-72-212A, operado pela Starbow Airlines (matrícula 9G-SBF) estava fazendo o voo S9-104 entre Accra para Kumasi, Gana quando sofreu uma excursão de pista durante sua decolagem no último dia 25/11/2017.

Haviam 63 passageiros e 5 tripulantes a bordo da aeronave no momento do acidente, o ATR havia iniciado sua decolagem da cabeceira 21 do aeroporto de Accra às 12: 20LT quando repentinamente durante sua decolagem a aeronave curvou bruscamente para a esquerda e “varou” a pista colidindo com a cerca do aeroporto. 

Cinco passageiros receberam lesões menores, a aeronave sofreu danos substanciais. Em nota a Agencia de Aviação Civil de Gana disse que “a aeronave estava em procedimento de decolagem no aeroporto Accra, ao atingir aproximadamente 70 KIAS o assento do capitão se moveu completamente para trás violentamente fazendo com que os comandos da aeronave fossem deslocados para a esquerda. Como o comandante ainda estava controlando a direção do trem de pouso do nariz através do wheel steering, isso fez a aeronave perder o eixo da pista e curvar para a esquerda e posteriormente colidir com a cerca do aeroporto”. “O capitão não recuperou o controle da aeronave antes da colisão de vido a velocidade que já havia sido atingida. A tripulação a bordo cumpriu os procedimentos de segurança e os passageiros desembarcaram sem dificuldades. Houve um total de cinco feridos. A ocorrência foi classificada como um acidente, tendo em vista que a aeronave tinha intenção de voo.

Uma investigação está em andamento por parte da Agencia de Aviação Civil de Gana. Vale lembrar que a aeronave estava voando pela Starbow à apenas 3 dias pois ela havia sido integrada a frota no último dia 22 de novembro de 2017.

METARS

DGAA 251400Z 28005KT 240V300 9999 FEW020 FEW030CB 25/20 Q1011 NOSIG=
DGAA 251300Z 22012KT 1300 TSRA OVC013 FEW030CB 23/22 Q1012 NOSIG=
DGAA 251200Z 27007KT 230V300 9999 FEW028 30/23 Q1012 NOSIG=
DGAA 251100Z 26008KT 230V290 9999 FEW024 SCT028 30/24 Q1013 NOSIG=
DGAA 251000Z 27009KT 240V300 9999 FEW020 29/24 Q1013 NOSIG

Advertisements
Advertisements

Comments

comments

LEAVE A REPLY

Please enter your comment!
Please enter your name here

This site uses Akismet to reduce spam. Learn how your comment data is processed.